Ora Direzione Vento Velocita' Vento Media Vento Raffica Max. Temperatura Wind Chill Pioggia Pressione
04:04:06.0260 °(W)13.8 Kts13.93 Kts22.4 Kts13.5 °C11.52 °C0.54 mm1007.4 Hpa
03:43:57.0266 °(W)18.2 Kts19.03 Kts22.4 Kts13.3 °C10.72 °C0.54 mm1008.5 Hpa
03:23:47.0251 °(WSW)20.0 Kts19.53 Kts22.0 Kts13.3 °C10.65 °C0.54 mm1007.4 Hpa
03:03:44.0268 °(W)13.0 Kts13.56 Kts19.9 Kts13.3 °C11.39 °C0.0 mm1009.0 Hpa
02:43:44.0272 °(W)14.2 Kts13.03 Kts19.9 Kts13.3 °C11.14 °C0.0 mm1009.0 Hpa
02:23:44.0278 °(W)12.4 Kts10.83 Kts19.9 Kts13.1 °C11.13 °C0.0 mm1009.1 Hpa
02:03:39.0291 °(WNW)12.6 Kts12.6 Kts19.9 Kts13.1 °C11.13 °C0.0 mm1010.8 Hpa
01:43:35.0299 °(WNW)13.4 Kts14.56 Kts19.9 Kts13.1 °C11.01 °C0.0 mm1010.8 Hpa
01:23:27.0304 °(NW)14.2 Kts13.8 Kts19.9 Kts12.8 °C10.5 °C0.0 mm1010.8 Hpa
01:02:39.0293 °(WNW)16.5 Kts16.0 Kts17.3 Kts11.3 °C8.36 °C0.0 mm1010.8 Hpa
00:42:37.0115 °(ESE)5.6 Kts5.83 Kts8.8 Kts9.5 °C8.07 °C0.0 mm1010.8 Hpa
00:22:33.095 °(E)6.8 Kts6.1 Kts8.8 Kts9.3 °C7.45 °C0.0 mm1010.8 Hpa
00:02:31.0101 °(E)4.7 Kts3.63 Kts5.9 Kts9.1 °C7.91 °C0.0 mm1011.9 Hpa
23:42:31.0101 °(E)5.3 Kts5.63 Kts16.4 Kts8.8 °C7.32 °C0.0 mm1010.3 Hpa
23:24:05.0107 °(ESE)4.2 Kts5.33 Kts16.4 Kts8.8 °C7.79 °C0.0 mm1010.8 Hpa
23:02:27.076 °(ENE)4.9 Kts4.16 Kts16.4 Kts9.3 °C8.06 °C0.0 mm1011.4 Hpa
22:42:29.0102 °(ESE)4.8 Kts6.06 Kts16.4 Kts10.1 °C9.09 °C0.0 mm1011.3 Hpa
22:22:33.0238 °(WSW)4.3 Kts4.53 Kts16.4 Kts11.8 °C11.15 °C0.0 mm1011.9 Hpa
22:04:06.0247 °(WSW)7.6 Kts7.76 Kts16.4 Kts12.1 °C10.65 °C0.0 mm1012.4 Hpa
21:42:27.0252 °(WSW)9.2 Kts8.9 Kts16.4 Kts12.1 °C10.39 °C0.0 mm1011.9 Hpa